This is the latest recevied weather packets stored in our database for station/object WAYLND-WX. If no packets are shown the sender has not sent any weather packets the latest 10 day(s).
| Time | Temp. | Humidity | Pressure | Rain* | Wind** | Luminosity | Snow |
|---|---|---|---|---|---|---|---|
| 1777559463 | 7.22° C | 78% | 989.3 hPa | 0 mm | - | - | - |
| 1777558541 | 6.67° C | 78% | 989.3 hPa | 0 mm | - | - | - |
| 1777557678 | 6.67° C | 78% | 989.3 hPa | 0 mm | - | - | - |
| 1777556742 | 6.11° C | 85% | 988.7 hPa | 0 mm | - | - | - |
| 1777555861 | 6.11° C | 85% | 988.7 hPa | 0 mm | - | - | - |
| 1777554941 | 5.56° C | 85% | 988.7 hPa | 0 mm | - | - | - |
| 1777554074 | 5.56° C | 85% | 988.7 hPa | 0 mm | - | - | - |
| 1777553142 | 5° C | 87% | 987.3 hPa | 0 mm | - | - | - |
| 1777552255 | 5° C | 87% | 988.3 hPa | 0 mm | - | - | - |
| 1777551342 | 4.44° C | 87% | 988.3 hPa | 0 mm | - | - | - |
| 1777550477 | 3.89° C | 87% | 988.3 hPa | 0 mm | - | - | - |
| 1777549542 | 3.33° C | 91% | 987.1 hPa | 0 mm | - | - | - |
| 1777548660 | 2.78° C | 93% | 988 hPa | 0 mm | - | - | - |
| 1777547740 | 2.78° C | 93% | 988 hPa | 0 mm | - | - | - |
| 1777546869 | 2.22° C | 93% | 988 hPa | 0 mm | - | - | - |
| 1777545940 | 2.22° C | 91% | 987.6 hPa | 0 mm | - | - | - |
| 1777545059 | 2.22° C | 92% | 988.4 hPa | 0 mm | - | - | - |
| 1777544141 | 2.22° C | 92% | 988.4 hPa | 0 mm | - | - | - |
| 1777543266 | 2.22° C | 91% | 988.6 hPa | 0 mm | - | - | - |
| 1777542340 | 2.78° C | 90% | 988.3 hPa | 0 mm | - | - | - |
| 1777541458 | 2.78° C | 90% | 988.3 hPa | 0 mm | - | - | - |
| 1777540540 | 2.78° C | 90% | 988.3 hPa | 0 mm | - | - | - |
| 1777539666 | 2.78° C | 90% | 988.3 hPa | 0 mm | - | - | - |
| 1777538739 | 2.78° C | 89% | 987.3 hPa | 0 mm | - | - | - |
| 1777537861 | 3.33° C | 88% | 987.8 hPa | 0 mm | - | - | - |
* Rain latest hour (hover to see other rain measurements)
** Current wind speed in m/s (hover to see current wind gust speed)